Time;durP1;ratioP1;P1;durP2;ratioP2;P2;SDS_P1;SDS_P2;PMS_P1;PMS_P2;Temp;Humidity;BMP_temperature;BMP_pressure;BME280_temperature;BME280_humidity;BME280_pressure;Samples;Min_cycle;Max_cycle;Signal;HPM_P1;HPM_P2
2021/09/08 00:01:56;;;;;;;14.80;13.20;;;16.00;99.90;;;;;;5066788;28;20040;-77
2021/09/08 00:04:22;;;;;;;14.07;12.57;;;15.90;99.90;;;;;;5068628;28;20463;-77
2021/09/08 00:06:48;;;;;;;15.48;12.23;;;15.80;99.90;;;;;;5069500;28;20027;-75
2021/09/08 00:09:15;;;;;;;13.90;12.25;;;15.80;99.90;;;;;;5055621;28;20415;-77
2021/09/08 00:11:41;;;;;;;17.60;12.68;;;15.80;99.90;;;;;;5083773;28;20084;-77
2021/09/08 00:14:07;;;;;;;17.48;14.43;;;15.70;99.90;;;;;;5097307;28;20405;-76
2021/09/08 00:16:36;;;;;;;15.25;12.50;;;15.70;99.90;;;;;;5091870;28;20045;-76
2021/09/08 00:19:02;;;;;;;18.10;15.18;;;15.60;99.90;;;;;;5130233;27;20047;-76
2021/09/08 00:21:30;;;;;;;20.88;16.30;;;15.60;99.90;;;;;;5086142;28;20059;-76
2021/09/08 00:23:59;;;;;;;26.75;17.02;;;15.50;99.90;;;;;;5086789;27;20658;-76
2021/09/08 00:26:25;;;;;;;19.05;15.40;;;15.50;99.90;;;;;;5108684;27;20780;-76
2021/09/08 00:28:51;;;;;;;20.63;15.95;;;15.40;99.90;;;;;;5107043;27;20039;-78
2021/09/08 00:31:17;;;;;;;19.38;16.60;;;15.40;99.90;;;;;;5081615;28;20047;-77
2021/09/08 00:33:43;;;;;;;20.73;17.38;;;15.30;99.90;;;;;;5105939;27;20055;-77
2021/09/08 00:36:08;;;;;;;24.40;18.50;;;15.20;99.90;;;;;;5089235;28;20072;-77
2021/09/08 00:38:34;;;;;;;22.95;18.45;;;15.30;99.90;;;;;;5073104;28;20092;-77
2021/09/08 00:41:00;;;;;;;22.48;18.42;;;15.20;99.90;;;;;;5114650;27;20131;-77
2021/09/08 00:43:26;;;;;;;21.58;16.55;;;15.20;99.90;;;;;;5099309;27;20051;-77
2021/09/08 00:45:56;;;;;;;24.00;19.17;;;15.20;99.90;;;;;;5088908;27;20039;-77
2021/09/08 00:48:22;;;;;;;23.27;19.27;;;15.20;99.90;;;;;;5080167;27;20035;-76
2021/09/08 00:50:49;;;;;;;21.48;17.90;;;15.30;99.90;;;;;;5078913;28;20043;-77
2021/09/08 00:53:17;;;;;;;20.83;16.45;;;15.20;99.90;;;;;;5088403;28;20039;-77
2021/09/08 00:55:47;;;;;;;22.95;19.35;;;15.20;99.90;;;;;;5116871;27;20421;-77
2021/09/08 00:58:14;;;;;;;20.83;17.38;;;15.20;99.90;;;;;;5081508;28;21272;-77
2021/09/08 01:00:41;;;;;;;22.67;18.80;;;15.20;99.90;;;;;;5098066;28;20075;-77
2021/09/08 01:03:07;;;;;;;26.23;20.02;;;15.20;99.90;;;;;;5077153;27;20043;-77
2021/09/08 01:05:35;;;;;;;24.50;16.83;;;15.20;99.90;;;;;;5104664;28;20043;-76
2021/09/08 01:08:02;;;;;;;19.17;16.15;;;15.20;99.90;;;;;;5075033;28;20046;-77
2021/09/08 01:10:29;;;;;;;20.25;16.88;;;15.20;99.90;;;;;;5107798;28;20500;-76
2021/09/08 01:12:56;;;;;;;26.55;20.13;;;15.20;99.90;;;;;;5082060;27;20054;-77
2021/09/08 01:15:22;;;;;;;24.45;19.85;;;15.20;99.90;;;;;;5109416;27;20937;-76
2021/09/08 01:17:47;;;;;;;28.27;20.75;;;15.20;99.90;;;;;;5082545;27;20178;-77
2021/09/08 01:20:15;;;;;;;21.02;18.05;;;15.20;99.90;;;;;;5084352;27;20087;-77
2021/09/08 01:22:51;;;;;;;24.15;19.25;;;15.20;99.90;;;;;;5073451;27;20043;-77
2021/09/08 01:25:22;;;;;;;25.15;19.73;;;15.20;99.90;;;;;;5110108;27;20078;-77
2021/09/08 01:27:49;;;;;;;23.10;18.73;;;15.20;99.90;;;;;;5091957;27;20039;-77
2021/09/08 01:30:20;;;;;;;24.85;19.83;;;15.20;99.90;;;;;;5075226;27;20054;-76
2021/09/08 01:32:49;;;;;;;25.50;18.63;;;15.10;99.90;;;;;;5106401;27;20121;-76
2021/09/08 01:35:20;;;;;;;21.35;17.10;;;15.10;99.90;;;;;;5090325;27;20287;-77
2021/09/08 01:37:49;;;;;;;21.10;15.38;;;15.10;99.90;;;;;;5109535;27;20043;-77
2021/09/08 01:40:17;;;;;;;18.05;14.68;;;15.00;99.90;;;;;;5087409;27;20040;-77
2021/09/08 01:42:43;;;;;;;21.92;17.33;;;15.00;99.90;;;;;;5108908;27;20505;-76
2021/09/08 01:45:14;;;;;;;19.60;17.10;;;15.10;99.90;;;;;;5087733;27;20826;-77
2021/09/08 01:47:43;;;;;;;22.98;18.35;;;15.10;99.90;;;;;;5102931;27;20509;-77
2021/09/08 01:50:10;;;;;;;22.20;17.07;;;15.00;99.90;;;;;;5109356;27;20100;-76
2021/09/08 01:52:42;;;;;;;20.58;17.58;;;15.00;99.90;;;;;;5074859;27;20050;-76
2021/09/08 01:55:10;;;;;;;21.45;17.05;;;15.00;99.90;;;;;;5091903;27;20130;-77
2021/09/08 01:57:36;;;;;;;23.30;19.05;;;14.90;99.90;;;;;;5106519;27;20412;-76
2021/09/08 02:00:04;;;;;;;24.55;19.17;;;14.90;99.90;;;;;;5103864;27;20324;-77
2021/09/08 02:02:30;;;;;;;22.45;18.67;;;14.90;99.90;;;;;;5136330;27;20047;-77
2021/09/08 02:04:55;;;;;;;23.35;18.58;;;14.90;99.90;;;;;;5063167;27;20047;-76
2021/09/08 02:07:21;;;;;;;25.08;20.27;;;14.80;99.90;;;;;;5066326;28;20412;-76
2021/09/08 02:09:47;;;;;;;22.38;18.95;;;14.80;99.90;;;;;;5099363;27;20039;-77
2021/09/08 02:12:13;;;;;;;22.80;19.58;;;14.80;99.90;;;;;;5085143;27;20040;-77
2021/09/08 02:14:39;;;;;;;24.23;20.48;;;14.80;99.90;;;;;;5101451;27;20039;-77
2021/09/08 02:17:04;;;;;;;22.90;19.08;;;14.80;99.90;;;;;;5084961;28;20059;-77
2021/09/08 02:19:30;;;;;;;22.70;17.88;;;14.80;99.90;;;;;;5099523;27;20118;-77
2021/09/08 02:21:56;;;;;;;26.05;19.55;;;14.80;99.90;;;;;;5105732;27;20027;-77
2021/09/08 02:24:22;;;;;;;24.75;19.38;;;14.70;99.90;;;;;;5098549;27;20054;-76
2021/09/08 02:26:48;;;;;;;21.77;17.15;;;14.80;99.90;;;;;;5077836;27;20043;-76
2021/09/08 02:29:14;;;;;;;26.08;20.48;;;14.80;99.90;;;;;;5091023;27;20485;-76
2021/09/08 02:31:39;;;;;;;23.23;19.55;;;14.80;99.90;;;;;;5086020;27;20509;-76
2021/09/08 02:34:05;;;;;;;23.92;19.67;;;14.80;99.90;;;;;;5102357;27;20116;-76
2021/09/08 02:36:31;;;;;;;27.42;21.17;;;14.70;99.90;;;;;;5102365;27;20044;-76
2021/09/08 02:38:57;;;;;;;24.20;19.92;;;14.80;99.90;;;;;;5073351;27;20071;-76
2021/09/08 02:41:24;;;;;;;27.67;21.45;;;14.70;99.90;;;;;;5074866;27;20527;-76
2021/09/08 02:43:51;;;;;;;26.52;19.13;;;14.70;99.90;;;;;;5085449;27;20421;-76
2021/09/08 02:46:17;;;;;;;26.88;20.55;;;14.70;99.90;;;;;;5105311;27;20054;-76
2021/09/08 02:48:43;;;;;;;24.38;19.80;;;14.60;99.90;;;;;;5091610;27;20485;-76
2021/09/08 02:51:09;;;;;;;28.38;21.23;;;14.60;99.90;;;;;;5089811;27;20050;-76
2021/09/08 02:53:35;;;;;;;26.95;20.27;;;14.60;99.90;;;;;;5100038;27;20043;-76
2021/09/08 02:56:02;;;;;;;24.73;19.63;;;14.50;99.90;;;;;;5123222;27;20042;-76
2021/09/08 02:58:29;;;;;;;23.58;18.75;;;14.50;99.90;;;;;;5103140;27;20047;-75
2021/09/08 03:00:55;;;;;;;23.35;17.27;;;14.50;99.90;;;;;;5073185;27;20047;-76
2021/09/08 03:03:21;;;;;;;22.40;19.15;;;14.50;99.90;;;;;;5089595;27;20050;-76
2021/09/08 03:05:48;;;;;;;25.20;19.25;;;14.40;99.90;;;;;;5072241;27;20099;-76
2021/09/08 03:08:14;;;;;;;23.35;18.88;;;14.40;99.90;;;;;;5076143;27;20047;-76
2021/09/08 03:10:43;;;;;;;20.10;16.92;;;14.40;99.90;;;;;;5135073;27;20058;-76
2021/09/08 03:13:12;;;;;;;24.70;19.10;;;14.40;99.90;;;;;;5107079;27;20050;-76
2021/09/08 03:15:38;;;;;;;21.33;17.40;;;14.40;99.90;;;;;;5070204;27;20042;-76
2021/09/08 03:18:07;;;;;;;23.50;18.52;;;14.40;99.90;;;;;;5087858;27;20050;-77
2021/09/08 03:20:33;;;;;;;21.25;17.05;;;14.40;99.90;;;;;;5090119;27;20092;-76
2021/09/08 03:23:00;;;;;;;21.65;17.75;;;14.40;99.90;;;;;;5119619;27;20047;-76
2021/09/08 03:25:27;;;;;;;21.83;16.60;;;14.50;99.90;;;;;;5103459;27;20550;-76
2021/09/08 03:27:55;;;;;;;24.77;19.65;;;14.40;99.90;;;;;;5085252;27;20046;-77
2021/09/08 03:30:24;;;;;;;19.88;16.75;;;14.40;99.90;;;;;;5084427;27;20477;-77
2021/09/08 03:32:50;;;;;;;20.48;16.75;;;14.50;99.90;;;;;;5087239;27;20043;-78
2021/09/08 03:35:16;;;;;;;24.58;19.52;;;14.50;99.90;;;;;;5104216;27;20031;-78
2021/09/08 03:37:42;;;;;;;25.90;20.80;;;14.50;99.90;;;;;;5101219;27;20122;-78
2021/09/08 03:40:09;;;;;;;24.40;19.35;;;14.60;99.90;;;;;;5107652;27;20046;-79
2021/09/08 03:42:36;;;;;;;24.95;20.15;;;14.70;99.90;;;;;;5087130;27;20505;-78
2021/09/08 03:45:03;;;;;;;23.65;20.45;;;14.70;99.90;;;;;;5088716;27;20189;-78
2021/09/08 03:47:29;;;;;;;22.45;19.95;;;14.70;99.90;;;;;;5071400;27;20398;-78
2021/09/08 03:49:55;;;;;;;23.80;19.40;;;14.70;99.90;;;;;;5087659;27;20080;-78
2021/09/08 03:52:21;;;;;;;23.75;19.80;;;14.80;99.90;;;;;;5074305;27;20533;-78
2021/09/08 03:54:47;;;;;;;24.15;20.02;;;14.80;99.90;;;;;;5087772;27;20039;-78
2021/09/08 03:57:13;;;;;;;24.50;20.10;;;14.80;99.90;;;;;;5089125;27;20485;-79
2021/09/08 03:59:39;;;;;;;22.85;19.92;;;14.80;99.90;;;;;;5070758;27;20031;-78
2021/09/08 04:02:05;;;;;;;25.40;20.30;;;14.80;99.90;;;;;;5087502;27;20042;-79
2021/09/08 04:04:31;;;;;;;23.67;19.85;;;14.80;99.90;;;;;;5087093;27;20087;-78
2021/09/08 04:07:00;;;;;;;24.88;20.15;;;14.80;99.90;;;;;;5083679;27;20048;-78
2021/09/08 04:09:26;;;;;;;23.85;20.65;;;14.80;99.90;;;;;;5103629;27;20039;-78
2021/09/08 04:11:52;;;;;;;24.08;21.30;;;14.80;99.90;;;;;;5104489;28;20043;-78
2021/09/08 04:14:18;;;;;;;24.85;19.95;;;14.80;99.90;;;;;;5087081;27;20172;-77
2021/09/08 04:16:43;;;;;;;23.60;18.83;;;14.80;99.90;;;;;;5085592;28;20126;-78
2021/09/08 04:19:09;;;;;;;21.75;17.55;;;14.80;99.90;;;;;;5066480;28;20043;-77
2021/09/08 04:21:35;;;;;;;25.65;21.10;;;14.70;99.90;;;;;;5088115;28;20058;-77
2021/09/08 04:24:01;;;;;;;28.60;21.55;;;14.70;99.90;;;;;;5099042;28;20046;-77
2021/09/08 04:26:27;;;;;;;22.92;19.77;;;14.70;99.90;;;;;;5067110;28;20044;-77
2021/09/08 04:28:53;;;;;;;28.10;21.20;;;14.60;99.90;;;;;;5085893;28;20077;-77
2021/09/08 04:31:18;;;;;;;27.75;20.23;;;14.50;99.90;;;;;;5097297;28;20062;-77
2021/09/08 04:33:44;;;;;;;23.70;20.00;;;14.50;99.90;;;;;;5080282;28;20039;-78
2021/09/08 04:36:10;;;;;;;27.25;21.45;;;14.40;99.90;;;;;;5098281;28;20170;-77
2021/09/08 04:38:38;;;;;;;23.40;19.42;;;14.30;99.90;;;;;;5082688;28;20036;-77
2021/09/08 04:41:04;;;;;;;24.63;18.75;;;14.30;99.90;;;;;;5063820;28;20083;-78
2021/09/08 04:43:30;;;;;;;25.20;20.80;;;14.30;99.90;;;;;;5082477;28;20067;-77
2021/09/08 04:45:56;;;;;;;25.35;20.15;;;14.30;99.90;;;;;;5098791;28;20130;-77
2021/09/08 04:48:21;;;;;;;23.00;19.70;;;14.30;99.90;;;;;;5067589;28;20570;-77
2021/09/08 04:50:47;;;;;;;24.15;18.90;;;14.30;99.90;;;;;;5084971;28;20455;-77
2021/09/08 04:53:13;;;;;;;20.83;18.10;;;14.20;99.90;;;;;;5054347;28;20039;-77
2021/09/08 04:55:39;;;;;;;23.15;18.90;;;14.30;99.90;;;;;;5084882;28;20047;-77
2021/09/08 04:58:07;;;;;;;29.17;23.02;;;14.30;99.90;;;;;;5095686;28;20096;-77
2021/09/08 05:00:36;;;;;;;26.80;21.58;;;14.20;99.90;;;;;;5101881;28;20457;-76
2021/09/08 05:03:02;;;;;;;29.00;23.50;;;14.20;99.90;;;;;;5081879;28;20077;-77
2021/09/08 05:05:27;;;;;;;24.52;20.92;;;14.20;99.90;;;;;;5082456;28;20048;-76
2021/09/08 05:07:53;;;;;;;30.63;24.05;;;14.10;99.90;;;;;;5086036;28;20829;-76
2021/09/08 05:10:22;;;;;;;28.58;22.15;;;14.10;99.90;;;;;;5065552;28;20044;-77
2021/09/08 05:12:48;;;;;;;22.25;19.13;;;14.10;99.90;;;;;;5100700;28;20501;-76
2021/09/08 05:15:14;;;;;;;27.23;21.35;;;14.10;99.90;;;;;;5084259;28;20035;-77
2021/09/08 05:17:40;;;;;;;28.77;22.08;;;14.10;99.90;;;;;;5066014;28;20498;-77
2021/09/08 05:20:10;;;;;;;23.67;19.00;;;14.20;99.90;;;;;;5071711;28;20039;-77
2021/09/08 05:22:36;;;;;;;22.65;18.45;;;14.20;99.90;;;;;;5069512;28;20079;-76
2021/09/08 05:25:02;;;;;;;22.40;18.30;;;14.20;99.90;;;;;;5038979;28;20036;-77
2021/09/08 05:27:28;;;;;;;21.50;15.73;;;14.30;99.90;;;;;;5072512;28;20043;-77
2021/09/08 05:29:54;;;;;;;20.40;16.52;;;14.30;99.90;;;;;;5063346;28;20062;-77
2021/09/08 05:32:19;;;;;;;21.33;17.75;;;14.30;99.90;;;;;;5062220;28;20040;-77
2021/09/08 05:34:45;;;;;;;20.70;15.93;;;14.30;99.90;;;;;;5042152;28;20513;-76
2021/09/08 05:37:14;;;;;;;21.85;17.65;;;14.30;99.90;;;;;;5062349;28;20036;-77
2021/09/08 05:39:40;;;;;;;24.70;20.60;;;14.30;99.90;;;;;;5050764;28;20127;-76
2021/09/08 05:42:05;;;;;;;22.73;19.27;;;14.30;99.90;;;;;;5075832;28;20645;-75
2021/09/08 05:44:31;;;;;;;28.08;20.02;;;14.30;99.90;;;;;;5065942;28;20638;-76
2021/09/08 05:46:57;;;;;;;26.70;20.92;;;14.40;99.90;;;;;;5085954;28;20043;-77
2021/09/08 05:49:23;;;;;;;24.27;20.63;;;14.50;99.90;;;;;;5093581;28;20074;-76
2021/09/08 05:51:49;;;;;;;27.13;21.90;;;14.50;99.90;;;;;;5064063;28;20498;-76
2021/09/08 05:54:14;;;;;;;24.85;21.73;;;14.60;99.90;;;;;;5087960;28;20101;-76
2021/09/08 05:56:43;;;;;;;28.23;22.20;;;14.50;99.90;;;;;;5077964;28;20051;-75
2021/09/08 05:59:09;;;;;;;26.20;21.33;;;14.50;99.90;;;;;;5061897;28;20052;-76
2021/09/08 06:01:34;;;;;;;25.60;22.33;;;14.60;99.90;;;;;;5057272;28;20052;-76
2021/09/08 06:04:00;;;;;;;23.63;20.48;;;14.60;99.90;;;;;;5052228;28;20044;-76
2021/09/08 06:06:26;;;;;;;23.73;18.88;;;14.60;99.90;;;;;;5074217;28;20050;-75
2021/09/08 06:08:52;;;;;;;21.95;18.92;;;14.60;99.90;;;;;;5071661;28;20036;-75
2021/09/08 06:11:17;;;;;;;21.77;19.38;;;14.70;99.90;;;;;;5072159;28;20040;-76
2021/09/08 06:13:43;;;;;;;22.70;19.17;;;14.80;99.90;;;;;;5090402;28;20393;-76
2021/09/08 06:16:09;;;;;;;24.33;18.08;;;14.90;99.90;;;;;;5047285;28;20448;-75
2021/09/08 06:18:35;;;;;;;24.10;19.38;;;15.00;99.90;;;;;;5083518;28;20069;-75
2021/09/08 06:21:01;;;;;;;29.15;19.75;;;15.10;99.90;;;;;;5087917;28;20054;-76
2021/09/08 06:23:26;;;;;;;20.67;18.27;;;15.20;99.90;;;;;;5085215;28;20039;-75
2021/09/08 06:25:52;;;;;;;23.08;18.65;;;15.20;99.90;;;;;;5101234;28;20042;-75
2021/09/08 06:28:18;;;;;;;24.23;20.23;;;15.30;99.90;;;;;;5087087;28;20037;-75
2021/09/08 06:30:45;;;;;;;23.15;19.98;;;15.40;99.90;;;;;;5071579;28;20039;-75
2021/09/08 06:33:11;;;;;;;23.80;19.20;;;15.50;99.90;;;;;;5083977;28;20040;-75
2021/09/08 06:35:37;;;;;;;25.83;19.35;;;15.50;99.90;;;;;;5069159;28;20087;-75
2021/09/08 06:38:06;;;;;;;20.98;17.80;;;15.60;99.90;;;;;;5085776;28;20035;-75
2021/09/08 06:40:31;;;;;;;22.52;18.08;;;15.70;99.90;;;;;;5071095;28;20036;-76
2021/09/08 06:42:57;;;;;;;21.17;17.17;;;15.80;99.90;;;;;;5065882;28;20039;-75
2021/09/08 06:45:23;;;;;;;20.65;16.92;;;15.90;99.90;;;;;;5080566;28;20031;-76
2021/09/08 06:47:52;;;;;;;21.80;18.38;;;16.00;99.90;;;;;;5051999;28;20036;-76
2021/09/08 06:50:18;;;;;;;21.10;18.17;;;16.10;99.90;;;;;;5087215;28;20039;-76
2021/09/08 06:52:47;;;;;;;21.00;17.65;;;16.20;99.90;;;;;;5086787;28;20454;-76
2021/09/08 06:55:13;;;;;;;23.38;16.45;;;16.30;99.90;;;;;;5102283;28;20067;-76
2021/09/08 06:57:42;;;;;;;21.17;15.77;;;16.40;99.90;;;;;;5064521;28;20051;-76
2021/09/08 07:00:08;;;;;;;20.88;15.68;;;16.50;99.90;;;;;;5099336;28;20204;-76
2021/09/08 07:02:37;;;;;;;17.55;14.50;;;16.60;99.90;;;;;;5103335;28;20088;-76
2021/09/08 07:05:06;;;;;;;19.23;14.70;;;16.70;99.90;;;;;;5090923;28;20039;-77
2021/09/08 07:07:32;;;;;;;17.15;13.95;;;16.70;99.90;;;;;;5065519;28;20039;-76
2021/09/08 07:09:58;;;;;;;19.17;14.27;;;16.90;99.90;;;;;;5068234;28;20048;-76
2021/09/08 07:12:24;;;;;;;16.60;13.95;;;17.00;99.90;;;;;;5103220;28;20039;-76
2021/09/08 07:14:49;;;;;;;18.02;13.68;;;17.10;99.90;;;;;;5062609;28;20036;-76
2021/09/08 07:17:15;;;;;;;16.77;14.27;;;17.30;99.90;;;;;;5064381;28;20426;-76
2021/09/08 07:19:41;;;;;;;16.25;14.20;;;17.40;99.90;;;;;;5060049;28;20110;-76
2021/09/08 07:22:07;;;;;;;18.42;14.48;;;17.60;99.90;;;;;;5050989;28;20059;-76
2021/09/08 07:24:37;;;;;;;15.32;13.52;;;17.70;99.90;;;;;;5066866;28;20498;-76
2021/09/08 07:27:06;;;;;;;17.80;14.13;;;17.90;99.90;;;;;;5073021;28;20035;-76
2021/09/08 07:29:32;;;;;;;13.68;12.05;;;18.00;99.90;;;;;;5079744;28;20669;-76
2021/09/08 07:31:57;;;;;;;15.63;12.88;;;18.20;99.90;;;;;;5050771;28;20032;-76
2021/09/08 07:34:23;;;;;;;15.73;13.20;;;18.40;99.90;;;;;;5035269;28;20086;-76
2021/09/08 07:36:49;;;;;;;15.55;13.15;;;18.50;99.90;;;;;;5085670;28;20133;-76
2021/09/08 07:39:15;;;;;;;19.33;13.65;;;18.70;99.60;;;;;;5063191;28;20048;-76
2021/09/08 07:41:41;;;;;;;21.83;14.10;;;18.90;99.20;;;;;;5044159;28;20112;-76
2021/09/08 07:44:07;;;;;;;18.80;14.85;;;19.00;98.50;;;;;;5075819;28;20115;-75
2021/09/08 07:46:35;;;;;;;16.23;13.95;;;19.10;98.40;;;;;;5073734;28;20049;-76
2021/09/08 07:49:02;;;;;;;16.88;13.95;;;19.30;97.50;;;;;;5081303;28;20032;-76
2021/09/08 07:51:28;;;;;;;15.55;13.27;;;19.40;97.10;;;;;;5082437;28;20125;-76
2021/09/08 07:53:54;;;;;;;15.57;11.88;;;19.60;96.70;;;;;;5067329;28;20600;-76
2021/09/08 07:56:19;;;;;;;13.85;12.35;;;19.70;96.60;;;;;;5082830;28;20058;-75
2021/09/08 07:58:45;;;;;;;14.95;12.63;;;19.90;96.40;;;;;;5073059;28;20110;-75
2021/09/08 08:01:11;;;;;;;14.15;12.38;;;20.00;95.90;;;;;;5081349;28;20055;-76
2021/09/08 08:03:37;;;;;;;15.52;11.40;;;20.10;95.70;;;;;;5060220;28;20055;-76
2021/09/08 08:06:06;;;;;;;16.60;11.80;;;20.40;95.00;;;;;;5059527;28;20051;-76
2021/09/08 08:08:33;;;;;;;14.70;12.02;;;20.50;94.90;;;;;;5050126;28;20040;-76
2021/09/08 08:10:58;;;;;;;14.32;10.98;;;20.70;94.60;;;;;;5065786;28;20040;-76
2021/09/08 08:13:24;;;;;;;15.02;10.48;;;20.90;94.60;;;;;;5048217;28;20447;-76
2021/09/08 08:15:53;;;;;;;15.15;12.43;;;21.10;94.20;;;;;;5066909;28;20904;-75
2021/09/08 08:18:19;;;;;;;16.48;12.73;;;21.30;93.10;;;;;;5068280;28;20051;-75
2021/09/08 08:20:44;;;;;;;12.48;10.73;;;21.40;92.80;;;;;;5076596;28;20514;-76
2021/09/08 08:23:11;;;;;;;12.10;10.73;;;21.50;92.30;;;;;;5069313;28;20115;-76
2021/09/08 08:25:40;;;;;;;14.57;10.88;;;21.60;92.50;;;;;;5087334;28;20040;-76
2021/09/08 08:28:05;;;;;;;13.38;10.32;;;21.80;92.20;;;;;;5047336;28;20051;-76
2021/09/08 08:30:35;;;;;;;13.98;10.95;;;21.90;92.00;;;;;;5060347;28;20043;-76
2021/09/08 08:33:04;;;;;;;13.07;9.90;;;22.00;91.60;;;;;;5078608;28;20040;-76
2021/09/08 08:35:30;;;;;;;13.15;10.23;;;22.20;91.20;;;;;;5086316;28;20039;-76
2021/09/08 08:37:56;;;;;;;11.00;8.85;;;22.30;91.10;;;;;;5062861;28;20051;-76
2021/09/08 08:40:22;;;;;;;11.95;10.05;;;22.50;91.10;;;;;;5077705;28;20165;-75
2021/09/08 08:42:48;;;;;;;12.23;10.15;;;22.60;90.80;;;;;;5083892;28;20048;-75
2021/09/08 08:45:15;;;;;;;12.55;9.25;;;22.60;89.80;;;;;;5068807;28;20048;-76
2021/09/08 08:47:42;;;;;;;11.35;8.95;;;22.60;88.90;;;;;;5081853;28;20052;-76
2021/09/08 08:50:10;;;;;;;12.40;9.10;;;22.60;90.00;;;;;;5061882;28;20073;-75
2021/09/08 08:52:36;;;;;;;12.00;9.48;;;22.80;89.80;;;;;;5077721;28;20131;-76
2021/09/08 08:55:03;;;;;;;11.90;9.05;;;22.90;90.00;;;;;;5059164;28;20130;-76
2021/09/08 08:57:34;;;;;;;12.95;9.35;;;23.10;88.80;;;;;;5053519;28;20056;-76
2021/09/08 09:00:01;;;;;;;15.15;10.02;;;23.20;88.80;;;;;;5063268;28;20040;-76
2021/09/08 09:02:29;;;;;;;11.15;9.38;;;23.30;89.20;;;;;;5079217;28;20041;-76
2021/09/08 09:05:00;;;;;;;11.93;9.35;;;23.30;88.40;;;;;;5063340;28;20072;-76
2021/09/08 09:07:36;;;;;;;13.35;9.32;;;23.40;88.10;;;;;;5051808;28;20044;-75
2021/09/08 09:10:09;;;;;;;11.13;9.80;;;23.30;86.30;;;;;;5060117;28;20101;-76
2021/09/08 09:12:40;;;;;;;11.20;8.60;;;23.30;85.90;;;;;;5056980;28;20058;-75
2021/09/08 09:15:08;;;;;;;13.65;10.23;;;23.30;86.80;;;;;;5060369;28;20053;-75
2021/09/08 09:17:42;;;;;;;13.05;10.15;;;23.30;85.60;;;;;;5068802;28;20051;-75
2021/09/08 09:20:11;;;;;;;11.27;9.75;;;23.30;86.80;;;;;;5051469;28;20043;-75
2021/09/08 09:22:42;;;;;;;12.02;9.88;;;23.40;87.30;;;;;;5077907;28;20035;-75
2021/09/08 09:25:17;;;;;;;13.45;10.30;;;23.40;87.30;;;;;;5060176;28;20064;-75
2021/09/08 09:27:44;;;;;;;10.52;9.43;;;23.40;86.00;;;;;;5062674;28;20522;-75
2021/09/08 09:30:12;;;;;;;12.48;9.80;;;23.50;87.40;;;;;;5081172;28;20098;-75
2021/09/08 09:32:43;;;;;;;13.25;10.20;;;23.50;86.00;;;;;;5065967;28;20048;-75
2021/09/08 09:35:11;;;;;;;12.32;10.15;;;23.50;85.00;;;;;;5055649;28;20101;-76
2021/09/08 09:37:52;;;;;;;13.38;10.25;;;23.50;85.20;;;;;;5059077;28;20436;-75
2021/09/08 09:40:38;;;;;;;14.45;10.32;;;23.60;86.00;;;;;;5076661;28;20123;-75
2021/09/08 09:43:09;;;;;;;12.10;10.68;;;23.60;85.50;;;;;;5082465;28;20399;-75
2021/09/08 09:45:38;;;;;;;14.05;10.20;;;23.60;85.20;;;;;;5080661;28;20051;-75
2021/09/08 09:48:08;;;;;;;11.13;9.38;;;23.80;85.60;;;;;;5058627;28;20063;-75
2021/09/08 09:50:38;;;;;;;13.52;9.77;;;23.90;84.30;;;;;;5063560;28;20116;-76
2021/09/08 09:53:04;;;;;;;12.88;10.40;;;24.00;84.40;;;;;;5060188;28;20048;-74
2021/09/08 09:55:30;;;;;;;13.82;10.68;;;24.20;84.90;;;;;;5087182;28;20063;-75
2021/09/08 09:57:57;;;;;;;13.35;11.05;;;24.40;84.70;;;;;;5071980;28;20208;-75
2021/09/08 10:00:23;;;;;;;15.60;10.65;;;24.40;83.20;;;;;;5070358;28;20044;-75
2021/09/08 10:02:49;;;;;;;13.02;10.63;;;24.40;83.40;;;;;;5064262;28;20050;-74
2021/09/08 10:05:16;;;;;;;13.95;10.25;;;24.40;82.40;;;;;;5070072;28;20055;-75
2021/09/08 10:07:42;;;;;;;11.23;10.13;;;24.40;81.50;;;;;;5048639;28;20040;-75
2021/09/08 10:10:11;;;;;;;11.13;10.00;;;24.40;81.00;;;;;;5066019;28;20399;-76
2021/09/08 10:12:47;;;;;;;13.38;9.40;;;24.50;80.50;;;;;;5073803;28;20400;-75
2021/09/08 10:15:15;;;;;;;13.88;9.98;;;24.50;81.20;;;;;;5059826;28;20105;-75
2021/09/08 10:17:43;;;;;;;12.35;9.68;;;24.60;81.50;;;;;;5053657;28;20040;-75
2021/09/08 10:20:12;;;;;;;12.10;9.75;;;24.70;82.40;;;;;;5078594;28;20086;-75
2021/09/08 10:22:43;;;;;;;11.07;9.93;;;24.90;82.30;;;;;;5082048;28;20043;-76
2021/09/08 10:25:14;;;;;;;12.90;10.82;;;25.10;79.10;;;;;;5074800;27;20052;-76
2021/09/08 10:27:41;;;;;;;11.80;9.98;;;25.10;75.10;;;;;;5073550;28;20039;-77
2021/09/08 10:30:09;;;;;;;11.85;9.60;;;25.00;77.00;;;;;;5098086;28;20704;-75
2021/09/08 10:32:36;;;;;;;10.25;9.23;;;25.10;78.80;;;;;;5092307;28;20036;-75
2021/09/08 10:35:23;;;;;;;11.77;9.10;;;25.20;79.30;;;;;;5075927;28;20036;-75
2021/09/08 10:37:53;;;;;;;13.50;9.05;;;25.30;79.80;;;;;;5092238;27;20052;-75
2021/09/08 10:40:23;;;;;;;14.00;9.02;;;25.50;78.10;;;;;;5071356;28;20087;-75
2021/09/08 10:42:56;;;;;;;13.43;9.70;;;25.70;78.90;;;;;;5063441;28;20068;-76
2021/09/08 10:45:29;;;;;;;13.02;8.93;;;25.80;75.20;;;;;;5132085;27;20047;-75
2021/09/08 10:47:58;;;;;;;10.65;8.38;;;25.80;76.80;;;;;;5093477;28;20082;-75
2021/09/08 10:50:42;;;;;;;9.27;8.30;;;25.90;76.00;;;;;;5096430;28;20244;-76
2021/09/08 10:53:28;;;;;;;10.75;8.60;;;26.00;74.30;;;;;;5071712;28;20051;-75
2021/09/08 10:55:54;;;;;;;9.75;7.63;;;26.00;71.30;;;;;;5081508;28;20232;-76
2021/09/08 10:58:20;;;;;;;10.20;7.82;;;26.00;72.10;;;;;;5079706;28;20044;-75
2021/09/08 11:00:49;;;;;;;10.00;7.53;;;26.10;70.00;;;;;;5103235;27;20047;-75
2021/09/08 11:03:15;;;;;;;12.53;9.47;;;26.20;70.40;;;;;;5088179;28;20032;-75
2021/09/08 11:05:57;;;;;;;10.13;8.70;;;26.30;71.30;;;;;;5076233;28;20093;-75
2021/09/08 11:08:28;;;;;;;10.35;8.57;;;26.30;65.20;;;;;;5078358;28;20081;-75
2021/09/08 11:11:06;;;;;;;9.40;7.70;;;26.20;67.80;;;;;;5082625;28;20405;-75
2021/09/08 11:13:32;;;;;;;10.05;7.60;;;26.20;66.50;;;;;;5085954;28;20036;-75
2021/09/08 11:15:58;;;;;;;9.57;7.32;;;26.20;67.70;;;;;;5086154;28;20043;-75
2021/09/08 11:18:34;;;;;;;10.20;7.28;;;26.30;69.70;;;;;;5097261;28;20387;-75
2021/09/08 11:21:05;;;;;;;8.00;6.97;;;26.40;68.10;;;;;;5068890;28;20099;-76
2021/09/08 11:23:34;;;;;;;8.63;6.38;;;26.60;65.40;;;;;;5071068;28;20166;-75
2021/09/08 11:26:08;;;;;;;;;;;26.70;64.40;;;;;;5055932;28;20046;-75
2021/09/08 11:28:35;;;;;;;9.27;6.90;;;26.70;64.40;;;;;;5074721;28;19924;-75
2021/09/08 11:31:19;;;;;;;8.20;7.22;;;26.80;65.80;;;;;;5076518;28;20062;-75
2021/09/08 11:33:48;;;;;;;8.25;6.10;;;27.00;64.90;;;;;;5093505;28;20047;-75
2021/09/08 11:36:19;;;;;;;9.40;6.78;;;27.10;62.40;;;;;;5087840;28;20126;-77
2021/09/08 11:38:56;;;;;;;7.07;5.75;;;27.20;61.90;;;;;;5089698;28;20079;-75
2021/09/08 11:41:23;;;;;;;7.15;6.00;;;27.20;59.20;;;;;;5119982;27;20060;-75
2021/09/08 11:43:52;;;;;;;6.28;5.68;;;27.20;58.50;;;;;;5080357;28;20135;-76
2021/09/08 11:46:31;;;;;;;5.93;5.18;;;27.20;55.80;;;;;;5102285;28;20044;-77
2021/09/08 11:49:07;;;;;;;6.90;5.80;;;27.10;56.90;;;;;;5090389;28;20044;-76
2021/09/08 11:51:35;;;;;;;7.75;5.82;;;27.10;57.40;;;;;;5101956;28;20536;-75
2021/09/08 11:54:04;;;;;;;6.63;5.70;;;27.00;55.40;;;;;;5089840;28;20047;-76
2021/09/08 11:56:30;;;;;;;8.15;6.03;;;27.00;59.50;;;;;;5084341;28;20101;-75
2021/09/08 11:59:03;;;;;;;7.68;5.72;;;27.10;57.60;;;;;;5105850;28;20051;-75
2021/09/08 12:01:39;;;;;;;8.52;5.40;;;27.20;57.50;;;;;;5082738;28;20055;-76
2021/09/08 12:04:07;;;;;;;7.30;6.13;;;27.30;56.50;;;;;;5097120;28;20575;-75
2021/09/08 12:06:34;;;;;;;8.02;5.30;;;27.40;56.20;;;;;;5077252;28;20500;-75
2021/09/08 12:09:11;;;;;;;5.90;4.97;;;27.50;57.20;;;;;;5093451;28;20075;-75
2021/09/08 12:12:15;;;;;;;7.72;5.72;;;27.50;56.80;;;;;;5101235;28;20426;-75
2021/09/08 12:14:43;;;;;;;13.75;5.90;;;27.50;55.50;;;;;;5035252;28;20113;-75
2021/09/08 12:17:19;;;;;;;7.03;5.57;;;27.50;55.20;;;;;;5077791;28;20059;-75
2021/09/08 12:19:47;;;;;;;7.32;5.72;;;27.50;57.50;;;;;;5080970;28;20152;-76
2021/09/08 12:22:18;;;;;;;7.90;5.60;;;27.50;57.00;;;;;;5105081;28;20482;-75
2021/09/08 12:24:47;;;;;;;8.93;5.90;;;27.60;56.90;;;;;;5086204;28;20036;-75
2021/09/08 12:27:42;;;;;;;6.63;5.45;;;27.60;56.20;;;;;;5089521;28;20043;-75
2021/09/08 12:30:10;;;;;;;6.60;5.20;;;27.60;54.90;;;;;;5057335;28;20168;-75
2021/09/08 12:32:58;;;;;;;8.63;6.30;;;27.60;56.90;;;;;;5086327;28;20040;-75
2021/09/08 12:35:36;;;;;;;9.85;6.10;;;27.70;57.40;;;;;;5086706;28;20352;-75